Fortrose, United Kingdom
Current Conditions -  °F | °C
As of 11:20 PM on Saturday 20 Dec 2014 (Local Time) from EGPE Reporting Station
Few Clouds Few Clouds  
Wind Chill: 36°   Ceiling: Unl
Heat Index: 43°   Visibility: 6mi
Dew Point: 39°   Wind: 13mph
Humidity: 87%   Direction: 240°WSW
Pressure: 30"   Gusts: 25mph
Location:  57.58°N, 4.13°W
Report Text: EGPE 202320Z AUTO 24011G22KT 9999 FEW040/// 06/04 Q1016
Loading
Personal Weather Stations






























Interactive Weather Map New forecast layout! Learn more

10-Day Weather Forecast

Advertisements
Track Severe Weather on mobile